Time;durP1;ratioP1;P1;durP2;ratioP2;P2;SDS_P1;SDS_P2;PMS_P1;PMS_P2;Temp;Humidity;BMP_temperature;BMP_pressure;BME280_temperature;BME280_humidity;BME280_pressure;Samples;Min_cycle;Max_cycle;Signal;HPM_P1;HPM_P2
2022/10/09 00:01:55;;;;;;;14.85;3.92;;;;;;;9.42;98.13;100012.84;8481612;27;20047;-82
2022/10/09 00:05:56;;;;;;;13.32;3.33;;;;;;;9.38;97.98;100015.31;8507618;27;20135;-82
2022/10/09 00:09:57;;;;;;;10.60;3.70;;;;;;;9.37;97.94;100021.78;8519061;27;20043;-81
2022/10/09 00:14:01;;;;;;;10.95;3.67;;;;;;;9.33;97.78;100023.44;8500445;27;20043;-81
2022/10/09 00:18:02;;;;;;;12.88;3.60;;;;;;;9.30;97.83;100015.91;8497992;27;20051;-83
2022/10/09 00:22:03;;;;;;;8.02;3.20;;;;;;;9.28;97.61;100028.84;8485226;27;20108;-80
2022/10/09 00:26:05;;;;;;;9.80;3.42;;;;;;;9.20;97.67;100021.34;8521804;27;20039;-81
2022/10/09 00:30:07;;;;;;;10.35;3.50;;;;;;;9.18;97.67;100023.50;8503158;27;20043;-81
2022/10/09 00:34:08;;;;;;;11.70;3.50;;;;;;;9.14;98.06;100033.25;8518694;27;20043;-80
2022/10/09 00:38:09;;;;;;;16.77;3.50;;;;;;;9.09;97.76;100030.56;8502256;27;20452;-80
2022/10/09 00:42:13;;;;;;;8.25;3.03;;;;;;;9.05;97.95;100040.25;8508128;27;20411;-80
2022/10/09 00:46:23;;;;;;;12.30;3.05;;;;;;;9.00;97.75;100037.59;8507189;27;20051;-81
2022/10/09 00:50:30;;;;;;;10.52;3.22;;;;;;;8.98;97.78;100050.53;8479066;27;20043;-80
2022/10/09 00:54:33;;;;;;;13.40;3.30;;;;;;;8.92;97.71;100046.25;8487993;27;20068;-80
2022/10/09 00:58:34;;;;;;;8.13;3.08;;;;;;;8.90;97.67;100044.63;8519263;27;20047;-80
2022/10/09 01:02:35;;;;;;;10.45;3.28;;;;;;;8.86;98.03;100054.34;8513347;27;20053;-81
2022/10/09 01:06:44;;;;;;;12.38;3.25;;;;;;;8.80;97.94;100052.75;8522031;27;20556;-81
2022/10/09 01:10:53;;;;;;;18.73;3.85;;;;;;;8.75;97.98;100063.53;8477487;27;20123;-81
2022/10/09 01:15:21;;;;;;;10.60;3.60;;;;;;;8.68;97.92;100054.94;8499809;27;20055;-81
2022/10/09 01:19:49;;;;;;;10.38;3.20;;;;;;;8.63;97.68;100060.31;8485023;27;20486;-79
2022/10/09 01:24:12;;;;;;;9.98;3.50;;;;;;;8.60;97.69;100055.50;8467293;27;20051;-80
2022/10/09 01:28:13;;;;;;;11.57;2.90;;;;;;;8.50;97.85;100055.53;8517799;27;20147;-80
2022/10/09 01:32:20;;;;;;;6.28;3.20;;;;;;;8.50;97.94;100071.66;8507084;27;20050;-81
2022/10/09 01:36:21;;;;;;;15.80;3.65;;;;;;;8.49;97.87;100080.81;8480156;27;20099;-80
2022/10/09 01:40:22;;;;;;;12.23;4.07;;;;;;;8.47;97.87;100082.97;8492606;27;20387;-80
2022/10/09 01:44:26;;;;;;;10.23;3.00;;;;;;;8.43;98.30;100087.28;8457516;27;20408;-80
2022/10/09 01:48:27;;;;;;;9.48;3.33;;;;;;;8.46;98.07;100089.41;8499873;27;20057;-81
2022/10/09 01:52:53;;;;;;;8.45;3.63;;;;;;;8.45;98.12;100085.13;8493910;27;20039;-81
2022/10/09 01:56:55;;;;;;;12.65;3.78;;;;;;;8.41;98.02;100084.03;8526253;27;20046;-81
2022/10/09 02:01:05;;;;;;;10.20;3.35;;;;;;;8.36;98.04;100089.44;8519868;27;20051;-80
2022/10/09 02:05:08;;;;;;;6.72;3.25;;;;;;;8.33;98.14;100103.44;8499332;27;20043;-79
2022/10/09 02:09:12;;;;;;;15.07;3.25;;;;;;;8.26;98.28;100097.47;8440050;28;20047;-80
2022/10/09 02:13:13;;;;;;;6.22;3.10;;;;;;;8.22;98.45;100101.78;8429792;28;20049;-80
2022/10/09 02:17:17;;;;;;;9.30;2.90;;;;;;;8.21;98.51;100105.56;8392959;28;20540;-80
2022/10/09 02:21:25;;;;;;;7.75;3.00;;;;;;;8.16;98.30;100102.84;8421224;28;20044;-81
2022/10/09 02:25:26;;;;;;;14.05;3.35;;;;;;;8.11;98.39;100110.94;8440867;28;20044;-80
2022/10/09 02:29:27;;;;;;;6.70;2.78;;;;;;;8.06;98.58;100115.22;8429325;28;20048;-80
2022/10/09 02:33:32;;;;;;;11.85;3.05;;;;;;;7.98;98.56;100115.75;8426399;28;20138;-80
2022/10/09 02:37:33;;;;;;;7.57;2.50;;;;;;;7.97;98.25;100122.22;8427198;28;20417;-80
2022/10/09 02:41:34;;;;;;;10.88;2.80;;;;;;;7.87;98.16;100122.22;8424846;28;20044;-79
2022/10/09 02:45:35;;;;;;;10.52;2.55;;;;;;;7.78;97.95;100134.53;8461066;27;20102;-80
2022/10/09 02:49:36;;;;;;;6.28;2.35;;;;;;;7.72;97.80;100143.66;8511878;27;20499;-80
2022/10/09 02:53:37;;;;;;;13.15;3.25;;;;;;;7.68;98.07;100145.25;8509622;27;20165;-80
2022/10/09 02:57:38;;;;;;;12.48;3.13;;;;;;;7.66;97.92;100142.06;8489497;27;20053;-81
2022/10/09 03:01:39;;;;;;;12.70;2.80;;;;;;;7.67;97.60;100143.66;8505627;27;20043;-80
2022/10/09 03:05:40;;;;;;;10.10;2.78;;;;;;;7.58;97.61;100140.66;8502226;27;20096;-81
2022/10/09 03:09:41;;;;;;;13.13;2.72;;;;;;;7.57;97.83;100154.38;8511803;27;20038;-80
2022/10/09 03:13:42;;;;;;;11.35;3.05;;;;;;;7.56;97.84;100152.78;8530714;27;20125;-80
2022/10/09 03:17:46;;;;;;;10.18;2.53;;;;;;;7.52;97.77;100165.91;8499088;27;20415;-80
2022/10/09 03:21:46;;;;;;;11.32;2.83;;;;;;;7.47;97.76;100162.38;8511336;27;20069;-81
2022/10/09 03:25:57;;;;;;;10.05;2.90;;;;;;;7.43;97.90;100169.38;8518134;27;20114;-81
2022/10/09 03:29:58;;;;;;;12.43;2.95;;;;;;;7.41;97.87;100166.94;8520264;27;20050;-81
2022/10/09 03:33:59;;;;;;;10.40;2.85;;;;;;;7.39;97.57;100174.47;8505602;27;20054;-81
2022/10/09 03:38:00;;;;;;;15.20;3.72;;;;;;;7.39;97.84;100189.78;8499545;27;20114;-81
2022/10/09 03:42:01;;;;;;;8.20;2.60;;;;;;;7.36;97.75;100184.91;8521853;27;20126;-82
2022/10/09 03:46:08;;;;;;;8.73;2.92;;;;;;;7.39;97.86;100184.41;8513762;27;20043;-80
2022/10/09 03:50:09;;;;;;;10.27;3.05;;;;;;;7.32;97.81;100192.69;8500901;27;20043;-81
2022/10/09 03:54:10;;;;;;;10.07;3.42;;;;;;;7.30;97.93;100196.69;8501925;27;20035;-81
2022/10/09 03:58:11;;;;;;;8.57;3.13;;;;;;;7.20;97.88;100198.25;8501510;27;20084;-81
2022/10/09 04:02:12;;;;;;;15.63;3.22;;;;;;;7.13;97.77;100192.34;8518004;27;20118;-81
2022/10/09 04:06:14;;;;;;;10.40;2.85;;;;;;;7.08;97.86;100200.34;8502162;27;20520;-81
2022/10/09 04:10:15;;;;;;;8.40;2.78;;;;;;;7.06;97.95;100201.66;8512660;27;20479;-80
2022/10/09 04:14:16;;;;;;;10.05;3.03;;;;;;;7.03;98.06;100208.34;8462506;27;20058;-81
2022/10/09 04:18:17;;;;;;;5.22;2.80;;;;;;;7.04;97.87;100209.97;8487353;27;20047;-80
2022/10/09 04:22:18;;;;;;;14.10;2.72;;;;;;;7.03;97.57;100212.94;8508635;27;20055;-79
2022/10/09 04:26:19;;;;;;;11.05;3.22;;;;;;;7.02;97.41;100212.13;8499617;27;20065;-80
2022/10/09 04:30:20;;;;;;;5.25;2.28;;;;;;;6.92;97.47;100214.75;8511799;27;20043;-79
2022/10/09 04:34:21;;;;;;;9.80;3.10;;;;;;;6.91;97.55;100215.81;8499523;27;20098;-79
2022/10/09 04:38:23;;;;;;;13.52;3.00;;;;;;;6.90;97.53;100224.94;8519008;27;20051;-81
2022/10/09 04:42:24;;;;;;;5.63;2.20;;;;;;;6.85;97.66;100222.22;8501361;27;20436;-81
2022/10/09 04:46:25;;;;;;;8.70;2.50;;;;;;;6.82;97.48;100233.44;8503537;27;20073;-81
2022/10/09 04:50:26;;;;;;;10.65;2.45;;;;;;;6.79;97.56;100233.97;8505607;27;20043;-81
2022/10/09 04:54:27;;;;;;;7.35;2.55;;;;;;;6.73;97.53;100237.66;8515490;27;20099;-81
2022/10/09 04:58:29;;;;;;;13.55;2.67;;;;;;;6.72;97.86;100244.91;8511702;27;20096;-81
2022/10/09 05:02:30;;;;;;;13.93;2.58;;;;;;;6.67;97.41;100246.75;8498045;27;20062;-81
2022/10/09 05:06:31;;;;;;;10.10;2.35;;;;;;;6.63;97.54;100251.00;8446342;27;20043;-81
2022/10/09 05:10:32;;;;;;;7.85;2.45;;;;;;;6.65;97.54;100259.63;8517210;27;20043;-81
2022/10/09 05:14:33;;;;;;;8.70;2.28;;;;;;;6.64;97.43;100258.81;8509992;27;20059;-81
2022/10/09 05:18:35;;;;;;;10.15;2.47;;;;;;;6.65;97.39;100265.00;8496671;27;20054;-81
2022/10/09 05:22:35;;;;;;;6.38;2.25;;;;;;;6.60;97.51;100262.25;8453590;28;20074;-81
2022/10/09 05:26:36;;;;;;;12.23;2.55;;;;;;;6.64;97.68;100269.56;8421974;28;20048;-81
2022/10/09 05:30:40;;;;;;;9.18;2.58;;;;;;;6.66;97.70;100267.41;8455832;28;20122;-81
2022/10/09 05:34:41;;;;;;;13.63;2.60;;;;;;;6.73;97.96;100277.94;8413260;28;20044;-81
2022/10/09 05:38:42;;;;;;;18.67;2.80;;;;;;;6.79;97.88;100282.28;8448635;28;20046;-80
2022/10/09 05:42:43;;;;;;;13.48;2.95;;;;;;;6.84;97.76;100285.03;8439619;28;20062;-81
2022/10/09 05:46:44;;;;;;;15.80;2.70;;;;;;;6.88;97.79;100286.13;8456050;28;20559;-81
2022/10/09 05:50:45;;;;;;;9.57;2.60;;;;;;;6.93;97.86;100283.47;8454958;28;20044;-80
2022/10/09 05:54:46;;;;;;;19.98;4.57;;;;;;;6.98;98.18;100280.84;8458434;27;20047;-80
2022/10/09 05:58:58;;;;;;;14.43;3.20;;;;;;;7.02;98.56;100291.91;8512858;27;20039;-81
2022/10/09 06:02:59;;;;;;;12.25;2.88;;;;;;;7.08;98.27;100291.69;8502666;27;20057;-80
2022/10/09 06:07:00;;;;;;;14.55;3.13;;;;;;;7.11;98.57;100301.91;8518290;27;20483;-80
2022/10/09 06:11:11;;;;;;;12.40;2.53;;;;;;;7.15;98.69;100313.75;8460418;27;20051;-80
2022/10/09 06:15:13;;;;;;;10.15;2.72;;;;;;;7.19;98.79;100309.47;8476873;27;20491;-81
2022/10/09 06:19:15;;;;;;;21.90;3.20;;;;;;;7.25;98.72;100312.19;8500045;27;20176;-81
2022/10/09 06:23:16;;;;;;;16.83;3.38;;;;;;;7.31;98.63;100316.56;8509762;27;20134;-80
2022/10/09 06:27:17;;;;;;;15.27;3.38;;;;;;;7.38;98.68;100322.53;8495225;27;20047;-80
2022/10/09 06:31:22;;;;;;;20.80;3.78;;;;;;;7.46;98.64;100322.03;8505141;27;20047;-80
2022/10/09 06:35:23;;;;;;;13.23;3.30;;;;;;;7.53;99.00;100326.13;8500069;27;20381;-80
2022/10/09 06:39:25;;;;;;;18.23;3.83;;;;;;;7.65;98.76;100334.00;8495947;27;20083;-79
2022/10/09 06:43:27;;;;;;;21.55;4.05;;;;;;;7.74;99.08;100332.44;8507382;27;20038;-80
2022/10/09 06:47:28;;;;;;;15.43;3.92;;;;;;;7.82;98.77;100334.66;8455369;27;20043;-80
2022/10/09 06:51:29;;;;;;;13.50;2.97;;;;;;;7.91;98.96;100338.47;8463113;27;20047;-88
2022/10/09 06:55:31;;;;;;;15.77;3.13;;;;;;;7.98;98.92;100355.16;8505108;27;20035;-80
2022/10/09 06:59:32;;;;;;;10.13;2.80;;;;;;;8.10;98.71;100351.44;8522982;27;20065;-80
2022/10/09 07:03:34;;;;;;;10.80;3.08;;;;;;;8.22;98.65;100370.88;8522409;27;20045;-80
2022/10/09 07:07:39;;;;;;;13.63;4.63;;;;;;;8.24;98.84;100358.00;8501671;27;20050;-79
2022/10/09 07:11:42;;;;;;;14.05;3.17;;;;;;;8.35;98.89;100370.44;8455801;27;20043;-81
2022/10/09 07:15:44;;;;;;;17.67;3.25;;;;;;;8.50;98.69;100381.28;8465923;27;20142;-80
2022/10/09 07:19:48;;;;;;;10.00;2.55;;;;;;;8.61;98.34;100380.25;8494911;27;20035;-80
2022/10/09 07:23:49;;;;;;;9.52;2.80;;;;;;;8.66;98.24;100377.56;8510060;27;20043;-81
2022/10/09 07:27:51;;;;;;;15.35;3.13;;;;;;;8.78;98.22;100386.19;8473010;27;20047;-79
2022/10/09 07:31:51;;;;;;;19.52;3.70;;;;;;;8.86;97.98;100393.75;8501558;27;20412;-79
2022/10/09 07:35:57;;;;;;;12.85;2.70;;;;;;;8.95;97.62;100383.25;8503487;27;20491;-79
2022/10/09 07:39:58;;;;;;;29.83;3.38;;;;;;;9.06;97.45;100389.47;8513021;27;20074;-80
2022/10/09 07:44:02;;;;;;;26.35;3.83;;;;;;;9.13;96.98;100387.34;8508411;27;20492;-81
2022/10/09 07:48:03;;;;;;;11.52;2.88;;;;;;;9.15;96.72;100393.25;8527027;27;20054;-81
2022/10/09 07:52:04;;;;;;;9.75;2.70;;;;;;;9.33;96.42;100395.44;8516947;27;20096;-81
2022/10/09 07:56:05;;;;;;;12.45;3.08;;;;;;;9.45;95.92;100404.09;8501561;27;20096;-82
2022/10/09 08:00:07;;;;;;;14.65;2.60;;;;;;;9.49;95.79;100402.47;8502733;27;20047;-82
2022/10/09 08:04:09;;;;;;;17.88;3.15;;;;;;;9.58;95.13;100411.63;8499534;27;20073;-82
2022/10/09 08:08:10;;;;;;;14.95;3.00;;;;;;;9.58;95.48;100406.22;8500384;27;20054;-81
2022/10/09 08:12:11;;;;;;;12.25;3.03;;;;;;;9.77;95.08;100413.78;8504532;27;20142;-80
2022/10/09 08:16:13;;;;;;;17.33;3.13;;;;;;;9.98;94.42;100412.66;8522745;27;20066;-80
2022/10/09 08:20:14;;;;;;;6.53;2.75;;;;;;;10.14;93.98;100408.84;8503087;27;20043;-81
2022/10/09 08:24:15;;;;;;;9.95;2.72;;;;;;;10.26;93.22;100406.66;8484966;27;20042;-82
2022/10/09 08:28:15;;;;;;;13.18;2.33;;;;;;;10.34;92.97;100408.81;8474573;27;20051;-80
2022/10/09 08:32:17;;;;;;;15.63;2.50;;;;;;;10.40;92.84;100412.31;8461886;27;20051;-81
2022/10/09 08:36:17;;;;;;;11.85;2.22;;;;;;;10.57;92.28;100413.56;8504766;27;20039;-79
2022/10/09 08:40:28;;;;;;;10.95;2.45;;;;;;;10.74;91.95;100412.41;8456901;27;20084;-80
2022/10/09 08:44:38;;;;;;;13.57;2.47;;;;;;;10.92;91.22;100419.91;8479789;27;20139;-82
2022/10/09 08:48:42;;;;;;;15.05;2.78;;;;;;;10.83;90.61;100427.00;8464193;27;20075;-80
2022/10/09 08:52:47;;;;;;;14.05;2.45;;;;;;;10.88;90.61;100424.25;8502955;27;20479;-80
2022/10/09 08:56:49;;;;;;;9.23;2.47;;;;;;;10.87;90.67;100433.44;8506559;27;20118;-81
2022/10/09 09:01:12;;;;;;;18.08;2.28;;;;;;;10.80;90.84;100432.94;8404536;28;20211;-80
2022/10/09 09:05:22;;;;;;;14.40;2.47;;;;;;;10.95;90.30;100435.56;8303156;28;20046;-80
2022/10/09 09:09:41;;;;;;;15.43;2.60;;;;;;;10.86;90.57;100431.81;8318156;28;20124;-80
2022/10/09 09:14:09;;;;;;;13.80;1.95;;;;;;;10.96;90.32;100431.78;8311606;28;20119;-80
2022/10/09 09:18:42;;;;;;;13.10;2.83;;;;;;;11.26;89.28;100442.41;8298881;28;20128;-79
2022/10/09 09:22:47;;;;;;;10.32;2.55;;;;;;;11.41;88.76;100439.59;8316325;28;20050;-80
2022/10/09 09:26:53;;;;;;;15.52;2.00;;;;;;;11.50;87.47;100444.41;8292015;28;20115;-80
2022/10/09 09:31:16;;;;;;;14.57;2.17;;;;;;;11.79;86.45;100434.47;8294447;28;20048;-79
2022/10/09 09:35:55;;;;;;;10.88;2.17;;;;;;;12.05;84.83;100441.25;8290672;28;20501;-82
2022/10/09 09:39:58;;;;;;;5.82;1.48;;;;;;;11.94;84.22;100431.63;8235953;28;20054;-81
2022/10/09 09:43:59;;;;;;;10.57;2.13;;;;;;;12.12;83.72;100433.59;8293240;28;20124;-82
2022/10/09 09:48:14;;;;;;;10.73;2.30;;;;;;;12.51;82.79;100429.91;8294758;28;20069;-83
2022/10/09 09:52:15;;;;;;;9.98;1.75;;;;;;;12.84;82.13;100434.38;8290018;28;20486;-82
2022/10/09 09:56:16;;;;;;;10.25;2.17;;;;;;;13.00;80.94;100438.50;8291770;28;20579;-82
2022/10/09 10:00:22;;;;;;;6.18;1.30;;;;;;;13.04;79.33;100423.25;8275014;28;20577;-82
2022/10/09 10:04:27;;;;;;;10.68;1.77;;;;;;;12.97;78.78;100439.06;8291137;28;20077;-82
2022/10/09 10:08:32;;;;;;;13.82;1.70;;;;;;;13.07;78.10;100430.78;8306454;28;20144;-80
2022/10/09 10:12:42;;;;;;;11.90;1.33;;;;;;;13.10;76.16;100427.50;8345841;28;20055;-81
2022/10/09 10:16:48;;;;;;;11.10;2.08;;;;;;;12.74;75.88;100429.09;8402032;28;20120;-81
2022/10/09 10:20:55;;;;;;;10.70;1.52;;;;;;;12.63;77.26;100428.41;8435371;28;20085;-81
2022/10/09 10:24:57;;;;;;;7.55;1.65;;;;;;;12.61;78.33;100425.19;8433512;28;20134;-82
2022/10/09 10:29:07;;;;;;;16.90;2.15;;;;;;;12.41;78.64;100436.28;8435559;28;20044;-81
2022/10/09 10:33:18;;;;;;;9.90;1.70;;;;;;;12.26;78.10;100437.25;8430605;28;20048;-82
2022/10/09 10:37:22;;;;;;;17.35;1.75;;;;;;;12.36;78.00;100438.22;8429496;28;20056;-81
2022/10/09 10:41:29;;;;;;;6.72;1.13;;;;;;;12.67;77.41;100431.34;8436480;28;20044;-81
2022/10/09 10:45:42;;;;;;;12.15;1.92;;;;;;;13.16;75.31;100441.03;8432537;28;20412;-81
2022/10/09 10:49:43;;;;;;;4.97;1.27;;;;;;;13.52;73.40;100439.41;8440339;28;20040;-81
2022/10/09 10:53:50;;;;;;;6.68;1.75;;;;;;;13.44;72.62;100448.19;8440252;28;20032;-83
2022/10/09 10:58:04;;;;;;;10.88;1.63;;;;;;;13.09;72.52;100447.59;8432763;28;20093;-81
2022/10/09 11:02:09;;;;;;;7.10;1.30;;;;;;;13.21;72.12;100438.25;8440007;28;20036;-81
2022/10/09 11:06:13;;;;;;;6.93;1.30;;;;;;;13.38;71.80;100443.94;8443556;28;20056;-82
2022/10/09 11:10:27;;;;;;;11.07;1.75;;;;;;;13.21;72.08;100443.69;8449761;28;20120;-81
2022/10/09 11:15:02;;;;;;;11.18;1.48;;;;;;;13.48;71.47;100443.81;8450007;27;20051;-81
2022/10/09 11:19:35;;;;;;;10.88;1.42;;;;;;;13.85;70.99;100441.00;8520617;27;20129;-81
2022/10/09 11:24:17;;;;;;;8.60;1.48;;;;;;;13.96;70.36;100434.28;8515342;27;20403;-81
2022/10/09 11:28:22;;;;;;;10.02;1.55;;;;;;;13.71;70.85;100434.72;8504939;27;20047;-81
2022/10/09 11:32:23;;;;;;;6.68;1.30;;;;;;;13.74;71.40;100436.06;8503924;27;20050;-81
2022/10/09 11:36:54;;;;;;;9.60;1.73;;;;;;;14.02;70.25;100420.63;8507761;27;20081;-82
2022/10/09 11:40:55;;;;;;;4.53;1.50;;;;;;;14.13;70.22;100416.59;8388872;28;20052;-81
2022/10/09 11:45:13;;;;;;;9.50;2.08;;;;;;;14.01;69.67;100419.03;8389221;28;20153;-81
2022/10/09 11:49:30;;;;;;;10.38;1.73;;;;;;;13.99;70.33;100407.66;8392284;28;20059;-81
2022/10/09 11:53:35;;;;;;;10.18;1.27;;;;;;;14.20;69.78;100400.72;8260836;28;20054;-81
2022/10/09 11:57:36;;;;;;;8.70;1.67;;;;;;;14.07;69.10;100406.94;8277840;28;20061;-81
2022/10/09 12:01:41;;;;;;;8.27;1.27;;;;;;;13.80;69.21;100407.72;8276415;28;20519;-81
2022/10/09 12:05:46;;;;;;;4.15;1.10;;;;;;;14.10;69.48;100395.50;8254963;28;20046;-81
2022/10/09 12:09:48;;;;;;;9.35;1.40;;;;;;;14.29;67.91;100394.28;8264227;28;20539;-81
2022/10/09 12:14:01;;;;;;;10.38;1.30;;;;;;;14.01;67.77;100391.88;8249129;28;20042;-82
2022/10/09 12:18:14;;;;;;;9.32;1.20;;;;;;;13.66;68.61;100396.81;8310698;28;20107;-82
2022/10/09 12:22:36;;;;;;;5.97;1.00;;;;;;;13.72;68.29;100384.75;8341073;28;20761;-82
2022/10/09 12:26:39;;;;;;;7.28;1.30;;;;;;;14.06;67.96;100378.19;8356849;28;20049;-82
2022/10/09 12:30:40;;;;;;;3.70;0.77;;;;;;;14.28;65.89;100364.69;8422016;28;20039;-82
2022/10/09 12:34:47;;;;;;;6.22;1.20;;;;;;;14.32;64.83;100365.72;8456261;27;20048;-82
2022/10/09 12:38:48;;;;;;;7.18;1.05;;;;;;;14.38;64.73;100370.75;8503873;27;20043;-82
2022/10/09 12:42:51;;;;;;;6.70;1.27;;;;;;;14.39;64.02;100366.13;8515625;27;20460;-81
2022/10/09 12:46:52;;;;;;;7.82;1.00;;;;;;;14.45;63.80;100359.47;8503788;27;20076;-82
2022/10/09 12:50:54;;;;;;;11.55;1.38;;;;;;;14.49;63.68;100355.03;8456989;27;20078;-82
2022/10/09 12:54:55;;;;;;;5.25;1.00;;;;;;;14.65;64.14;100359.03;8504397;27;20093;-84
2022/10/09 12:58:57;;;;;;;7.50;1.35;;;;;;;14.62;62.53;100359.66;8515077;27;20768;-82
2022/10/09 13:02:58;;;;;;;8.90;2.10;;;;;;;15.51;60.69;100365.22;8501039;27;20091;-82
2022/10/09 13:07:05;;;;;;;7.78;1.30;;;;;;;16.37;58.07;100352.00;8504632;27;20103;-82
2022/10/09 13:11:30;;;;;;;7.63;0.82;;;;;;;17.40;56.92;100356.72;8497150;27;20054;-81
2022/10/09 13:15:34;;;;;;;3.53;0.90;;;;;;;17.96;56.30;100355.66;8484849;27;20133;-82
2022/10/09 13:19:36;;;;;;;5.88;1.05;;;;;;;17.85;56.02;100348.94;8505207;27;20051;-81
2022/10/09 13:23:37;;;;;;;7.30;1.30;;;;;;;17.43;57.21;100358.00;8522183;27;20141;-81
2022/10/09 13:27:38;;;;;;;6.60;0.88;;;;;;;16.61;56.57;100348.03;8513717;27;20046;-81
2022/10/09 13:31:43;;;;;;;5.80;0.80;;;;;;;15.75;57.67;100353.19;8504302;27;20459;-82
2022/10/09 13:35:44;;;;;;;6.40;1.13;;;;;;;15.18;60.48;100350.22;8523434;27;20039;-82
2022/10/09 13:39:46;;;;;;;7.88;1.52;;;;;;;14.86;61.92;100343.06;8481553;27;20042;-82
2022/10/09 13:43:48;;;;;;;9.88;2.63;;;;;;;14.69;62.20;100342.94;8504722;27;20054;-81
2022/10/09 13:47:49;;;;;;;25.75;1.52;;;;;;;14.46;63.63;100344.78;8499512;27;20044;-81
2022/10/09 13:51:50;;;;;;;9.45;1.10;;;;;;;14.14;65.07;100331.28;8448846;27;20050;-80
2022/10/09 13:55:52;;;;;;;4.50;0.95;;;;;;;13.95;66.26;100340.34;8499771;27;20070;-80
2022/10/09 13:59:53;;;;;;;6.25;1.10;;;;;;;13.72;67.95;100345.94;8521405;27;20046;-80
2022/10/09 14:03:54;;;;;;;8.90;1.20;;;;;;;13.47;68.81;100341.78;8509508;27;20463;-80
2022/10/09 14:07:55;;;;;;;4.97;1.17;;;;;;;13.25;70.13;100336.19;8494649;27;20050;-80
2022/10/09 14:11:56;;;;;;;17.30;1.25;;;;;;;13.06;71.62;100344.28;8501381;27;20047;-79
2022/10/09 14:15:58;;;;;;;8.23;1.30;;;;;;;12.87;72.92;100336.19;8513223;27;20142;-80
2022/10/09 14:19:59;;;;;;;11.13;1.40;;;;;;;12.78;74.40;100321.69;8462805;27;20086;-80
2022/10/09 14:24:03;;;;;;;9.38;1.02;;;;;;;12.77;74.52;100330.91;8451173;27;20050;-80
2022/10/09 14:28:05;;;;;;;13.57;2.10;;;;;;;12.84;74.43;100325.94;8502250;27;20077;-80
2022/10/09 14:32:06;;;;;;;7.43;3.35;;;;;;;12.87;74.48;100325.34;8488274;27;20131;-80
2022/10/09 14:36:18;;;;;;;20.33;11.48;;;;;;;12.89;75.09;100317.75;8502186;27;20562;-80
2022/10/09 14:40:19;;;;;;;16.65;8.25;;;;;;;12.93;74.72;100313.34;8497565;27;20117;-80
2022/10/09 14:44:20;;;;;;;11.45;2.92;;;;;;;12.91;74.62;100307.38;8526228;27;20057;-80
2022/10/09 14:48:21;;;;;;;8.80;1.70;;;;;;;12.84;74.17;100306.16;8506406;27;20464;-80
2022/10/09 14:52:22;;;;;;;3.97;1.00;;;;;;;12.77;74.17;100303.81;8512629;27;20035;-80
2022/10/09 14:56:24;;;;;;;12.68;1.45;;;;;;;12.68;74.41;100305.59;8514075;27;20064;-80
2022/10/09 15:00:25;;;;;;;9.23;1.52;;;;;;;12.61;74.50;100305.13;8512924;27;20122;-80
2022/10/09 15:04:26;;;;;;;8.98;1.80;;;;;;;12.50;74.91;100303.66;8519869;27;20043;-81
2022/10/09 15:08:32;;;;;;;14.88;2.33;;;;;;;12.36;74.94;100297.38;8510948;27;20051;-80
2022/10/09 15:12:33;;;;;;;9.05;3.45;;;;;;;12.27;75.56;100298.00;8522764;27;20043;-81
2022/10/09 15:16:34;;;;;;;8.20;3.70;;;;;;;12.15;76.03;100292.22;8527447;27;20046;-80
2022/10/09 15:20:35;;;;;;;13.38;2.80;;;;;;;12.03;76.17;100289.09;8530853;27;20514;-80
2022/10/09 15:24:36;;;;;;;10.63;3.83;;;;;;;11.94;76.34;100290.84;8475393;27;20188;-80
2022/10/09 15:28:37;;;;;;;13.32;3.90;;;;;;;11.82;76.22;100276.91;8520846;27;20047;-80
2022/10/09 15:32:38;;;;;;;11.27;3.00;;;;;;;11.75;76.37;100281.84;8517248;27;21045;-80
2022/10/09 15:36:39;;;;;;;9.80;2.20;;;;;;;11.63;76.67;100284.13;8508066;27;20471;-80
2022/10/09 15:40:46;;;;;;;10.93;2.00;;;;;;;11.46;77.35;100289.16;8520482;27;20111;-81
2022/10/09 15:44:47;;;;;;;7.15;1.35;;;;;;;11.29;78.18;100285.00;8504518;27;20042;-81
2022/10/09 15:48:48;;;;;;;9.00;1.63;;;;;;;11.13;78.91;100291.63;8511474;27;20531;-81
2022/10/09 15:52:49;;;;;;;8.10;1.35;;;;;;;10.95;79.78;100278.78;8517919;27;20039;-82
2022/10/09 15:56:51;;;;;;;11.30;1.83;;;;;;;10.77;80.31;100287.59;8523601;27;20042;-81
2022/10/09 16:00:51;;;;;;;6.70;1.92;;;;;;;10.62;81.21;100287.69;8466641;27;20070;-82
2022/10/09 16:04:53;;;;;;;10.15;2.13;;;;;;;10.48;81.86;100285.59;8463665;27;20665;-81
2022/10/09 16:08:55;;;;;;;7.20;1.77;;;;;;;10.37;82.26;100286.75;8509178;27;20051;-81
2022/10/09 16:12:56;;;;;;;19.27;2.50;;;;;;;10.21;82.58;100290.59;8514544;27;20107;-81
2022/10/09 16:16:58;;;;;;;15.35;4.95;;;;;;;10.07;83.21;100290.38;8511219;27;20050;-81
2022/10/09 16:21:24;;;;;;;33.17;8.75;;;;;;;9.95;83.87;100286.38;8510992;27;20051;-81
2022/10/09 16:25:25;;;;;;;39.53;10.35;;;;;;;9.83;84.15;100293.97;8384928;28;20052;-81
2022/10/09 16:29:26;;;;;;;37.88;12.35;;;;;;;9.70;84.40;100296.16;8384959;28;20048;-81
2022/10/09 16:33:28;;;;;;;28.98;10.35;;;;;;;9.57;84.71;100291.34;8390445;28;20059;-80
2022/10/09 16:37:29;;;;;;;33.90;10.43;;;;;;;9.46;84.84;100295.16;8358404;28;20060;-80
2022/10/09 16:41:30;;;;;;;55.72;11.30;;;;;;;9.35;85.10;100304.34;8366069;28;20079;-81
2022/10/09 16:45:32;;;;;;;52.35;10.38;;;;;;;9.23;85.10;100306.50;8387724;28;20053;-80
2022/10/09 16:49:33;;;;;;;51.95;9.15;;;;;;;9.15;85.26;100307.00;8383009;28;20059;-80
2022/10/09 16:53:37;;;;;;;42.70;8.25;;;;;;;9.03;85.59;100312.69;8357703;28;20052;-80
2022/10/09 16:57:38;;;;;;;34.47;8.13;;;;;;;8.89;85.64;100312.41;8389123;28;20094;-79
2022/10/09 17:01:45;;;;;;;30.02;9.90;;;;;;;8.76;85.93;100302.16;8454568;27;20047;-80
2022/10/09 17:05:46;;;;;;;23.27;9.27;;;;;;;8.71;86.33;100315.63;8517394;27;20043;-80
2022/10/09 17:09:47;;;;;;;21.50;7.32;;;;;;;8.64;86.08;100320.44;8511832;27;20080;-80
2022/10/09 17:13:48;;;;;;;17.88;8.02;;;;;;;8.59;86.16;100317.75;8511739;27;20130;-81
2022/10/09 17:17:49;;;;;;;19.33;7.25;;;;;;;8.49;86.07;100317.72;8483650;27;20527;-79
2022/10/09 17:21:50;;;;;;;21.95;5.88;;;;;;;8.39;86.30;100323.09;8503474;27;20051;-80
2022/10/09 17:25:51;;;;;;;34.30;12.13;;;;;;;8.28;86.40;100321.41;8529634;27;20046;-80
2022/10/09 17:29:52;;;;;;;150.38;49.40;;;;;;;8.24;86.35;100315.75;8525430;27;20087;-80
2022/10/09 17:33:55;;;;;;;199.15;70.05;;;;;;;8.20;86.79;100319.19;8514345;27;20047;-80
2022/10/09 17:37:58;;;;;;;187.95;62.00;;;;;;;8.15;86.75;100321.88;8512629;27;20043;-80
2022/10/09 17:42:00;;;;;;;130.45;42.75;;;;;;;8.01;86.57;100322.38;8511484;27;20054;-79
2022/10/09 17:46:01;;;;;;;72.40;24.42;;;;;;;7.93;86.88;100320.16;8497979;27;20058;-79
2022/10/09 17:50:03;;;;;;;112.43;32.88;;;;;;;7.88;86.95;100322.81;8503320;27;20484;-80
2022/10/09 17:54:12;;;;;;;97.68;29.58;;;;;;;7.85;87.05;100312.59;8478317;27;20043;-80
2022/10/09 17:58:14;;;;;;;51.28;19.13;;;;;;;7.81;87.02;100316.88;8487878;27;20053;-79
2022/10/09 18:02:17;;;;;;;44.60;15.88;;;;;;;7.74;87.19;100316.31;8461821;27;20039;-80
2022/10/09 18:06:21;;;;;;;49.55;18.33;;;;;;;7.70;87.25;100309.84;8474858;27;20379;-80
2022/10/09 18:10:22;;;;;;;44.28;15.48;;;;;;;7.63;87.05;100309.25;8459046;27;20403;-80
2022/10/09 18:14:25;;;;;;;29.85;12.32;;;;;;;7.56;87.32;100301.41;8507366;27;20139;-80
2022/10/09 18:18:26;;;;;;;48.17;16.98;;;;;;;7.50;87.58;100307.03;8464990;27;20058;-80
2022/10/09 18:22:28;;;;;;;55.53;18.40;;;;;;;7.46;87.57;100311.28;8468542;27;20054;-80
2022/10/09 18:26:30;;;;;;;32.97;11.52;;;;;;;7.40;87.52;100298.91;8510619;27;20187;-80
2022/10/09 18:30:31;;;;;;;52.00;19.13;;;;;;;7.35;87.57;100301.56;8506544;27;20047;-81
2022/10/09 18:34:32;;;;;;;52.10;19.75;;;;;;;7.31;87.34;100312.00;8479794;27;20091;-80
2022/10/09 18:38:34;;;;;;;48.80;17.63;;;;;;;7.25;87.46;100313.00;8501852;27;20038;-80
2022/10/09 18:42:35;;;;;;;36.10;13.23;;;;;;;7.24;87.68;100310.59;8516616;27;20128;-81
2022/10/09 18:46:41;;;;;;;38.85;15.05;;;;;;;7.20;87.75;100305.72;8472579;27;20040;-81
2022/10/09 18:50:44;;;;;;;34.42;11.98;;;;;;;7.20;87.69;100308.41;8462263;27;20058;-80
2022/10/09 18:54:51;;;;;;;25.88;9.05;;;;;;;7.21;88.09;100318.09;8456792;27;20483;-80